createdAt,value
2018-12-25T05:00:52.460Z,6.34
2018-12-25T05:01:52.331Z,6.33
2018-12-25T05:03:45.005Z,6.36
2018-12-25T05:04:44.875Z,6.36
2018-12-25T05:06:37.562Z,6.31
2018-12-25T05:07:37.428Z,6.29
2018-12-25T05:09:30.089Z,6.42
2018-12-25T05:10:29.973Z,6.20
2018-12-25T05:12:22.651Z,6.25
2018-12-25T05:13:22.523Z,6.15
2018-12-25T05:15:15.215Z,6.25
2018-12-25T05:16:15.073Z,6.15
2018-12-25T05:18:07.744Z,6.24
2018-12-25T05:19:07.638Z,6.28
2018-12-25T05:21:00.278Z,6.28
2018-12-25T05:22:00.157Z,6.26
2018-12-25T05:23:52.842Z,6.20
2018-12-25T05:24:52.714Z,6.28
2018-12-25T05:26:45.383Z,6.10
2018-12-25T05:27:45.300Z,6.10
2018-12-25T05:29:37.939Z,6.10
2018-12-25T05:30:37.813Z,6.10
2018-12-25T05:32:30.487Z,6.17
2018-12-25T05:33:30.385Z,6.09
2018-12-25T05:35:23.021Z,6.07
2018-12-25T05:36:22.932Z,6.18
2018-12-25T05:38:15.617Z,6.07
2018-12-25T05:39:15.468Z,6.07
2018-12-25T05:41:08.142Z,6.03
2018-12-25T05:42:08.032Z,6.03
2018-12-25T05:44:00.710Z,5.96
2018-12-25T05:45:00.587Z,5.99
2018-12-25T05:46:53.248Z,5.95
2018-12-25T05:47:53.138Z,5.96
2018-12-25T05:49:45.850Z,5.99
2018-12-25T05:50:46.873Z,6.05
2018-12-25T05:52:38.415Z,6.10
2018-12-25T05:53:38.332Z,6.10
2018-12-25T05:55:30.936Z,6.13
2018-12-25T05:56:30.826Z,6.09
2018-12-25T05:58:23.499Z,6.06
2018-12-25T05:59:23.364Z,6.03
2018-12-25T06:01:16.197Z,6.07
2018-12-25T06:02:15.930Z,6.06
2018-12-25T06:04:08.605Z,6.14
2018-12-25T06:05:08.478Z,6.10
2018-12-25T06:07:01.163Z,6.09
2018-12-25T06:08:01.054Z,6.06
2018-12-25T06:09:53.725Z,6.10
2018-12-25T06:10:53.598Z,6.17
2018-12-25T06:12:46.267Z,6.21
2018-12-25T06:13:46.141Z,6.21
2018-12-25T06:15:38.837Z,6.29
2018-12-25T06:16:38.691Z,6.25
2018-12-25T06:18:31.378Z,6.26
2018-12-25T06:19:31.246Z,6.25
2018-12-25T06:21:23.907Z,6.33
2018-12-25T06:22:23.797Z,6.39
2018-12-25T06:24:16.478Z,6.40
2018-12-25T06:25:16.375Z,6.40
2018-12-25T06:27:09.005Z,6.37
2018-12-25T06:28:08.898Z,6.37
2018-12-25T06:30:01.591Z,6.44
2018-12-25T06:31:01.445Z,6.43
2018-12-25T06:32:54.106Z,6.42
2018-12-25T06:33:53.991Z,6.39
2018-12-25T06:35:46.663Z,6.39
2018-12-25T06:36:46.534Z,6.39
2018-12-25T06:38:39.220Z,6.49
2018-12-25T06:39:39.086Z,6.51
2018-12-25T06:41:31.750Z,6.47
2018-12-25T06:42:31.633Z,6.43
2018-12-25T06:44:24.351Z,6.31
2018-12-25T06:45:24.196Z,6.34
2018-12-25T06:47:16.854Z,6.25
2018-12-25T06:48:16.738Z,6.24
2018-12-25T06:50:09.445Z,6.21
2018-12-25T06:51:09.314Z,6.26
2018-12-25T06:53:01.980Z,6.28
2018-12-25T06:54:01.869Z,6.17
2018-12-25T06:55:54.554Z,6.14
2018-12-25T06:56:54.471Z,6.14
2018-12-25T06:58:47.094Z,6.10
2018-12-25T06:59:46.975Z,6.20
2018-12-25T07:01:39.665Z,6.28
2018-12-25T07:02:39.544Z,6.18
2018-12-25T07:04:32.225Z,6.29
2018-12-25T07:05:32.097Z,6.28
2018-12-25T07:07:24.752Z,6.39
2018-12-25T07:08:24.641Z,6.44
2018-12-25T07:10:17.317Z,6.34
2018-12-25T07:11:17.182Z,6.34
2018-12-25T07:13:09.860Z,6.29
2018-12-25T07:14:09.745Z,6.26
2018-12-25T07:16:02.428Z,6.21
2018-12-25T07:17:02.283Z,6.26
2018-12-25T07:18:54.941Z,6.15
2018-12-25T07:19:54.856Z,6.29
2018-12-25T07:21:47.537Z,6.31
2018-12-25T07:22:47.405Z,6.36
2018-12-25T07:24:40.094Z,6.18
2018-12-25T07:25:39.952Z,6.34
2018-12-25T07:27:32.611Z,6.31
2018-12-25T07:28:32.500Z,6.28
2018-12-25T07:30:25.185Z,6.43
2018-12-25T07:31:25.048Z,6.42
2018-12-25T07:33:17.721Z,6.34
2018-12-25T07:34:17.599Z,6.42
2018-12-25T07:36:10.276Z,6.33
2018-12-25T07:37:10.146Z,6.39
2018-12-25T07:39:02.817Z,6.36
2018-12-25T07:40:02.689Z,6.39
2018-12-25T07:41:55.369Z,6.28
2018-12-25T07:42:55.242Z,6.26
2018-12-25T07:44:47.909Z,6.28
2018-12-25T07:45:47.785Z,6.36
2018-12-25T07:47:40.480Z,6.29
2018-12-25T07:48:40.345Z,6.34
2018-12-25T07:50:33.179Z,6.36
2018-12-25T07:51:32.888Z,6.40
2018-12-25T07:53:25.562Z,6.40
2018-12-25T07:54:25.463Z,6.46
2018-12-25T07:56:18.119Z,6.47
2018-12-25T07:57:17.993Z,6.43
2018-12-25T07:59:10.658Z,6.54
2018-12-25T08:00:10.568Z,6.57
2018-12-25T08:02:03.228Z,6.55
2018-12-25T08:03:03.100Z,6.52
2018-12-25T08:04:55.758Z,6.52
2018-12-25T08:05:55.645Z,6.40
2018-12-25T08:07:48.319Z,6.42
2018-12-25T08:08:48.260Z,6.39
2018-12-25T08:10:40.861Z,6.44
2018-12-25T08:11:40.746Z,6.43
2018-12-25T08:13:33.393Z,6.55
2018-12-25T08:14:33.282Z,6.55
2018-12-25T08:16:25.963Z,6.55
2018-12-25T08:17:25.844Z,6.49
2018-12-25T08:19:18.494Z,6.54
2018-12-25T08:20:18.375Z,6.52
2018-12-25T08:22:11.072Z,6.49
2018-12-25T08:23:10.938Z,6.46
2018-12-25T08:25:03.609Z,6.52
2018-12-25T08:26:03.487Z,6.47
2018-12-25T08:27:56.253Z,6.51
2018-12-25T08:28:56.124Z,6.55
2018-12-25T08:30:48.948Z,6.60
2018-12-25T08:31:48.669Z,6.57
2018-12-25T08:33:41.355Z,6.67
2018-12-25T08:34:41.221Z,6.67
2018-12-25T08:36:33.937Z,6.75
2018-12-25T08:37:33.772Z,6.78
2018-12-25T08:39:26.438Z,6.68
2018-12-25T08:40:26.328Z,6.82
2018-12-25T08:42:19.008Z,6.79
2018-12-25T08:43:18.886Z,6.83
2018-12-25T08:45:11.557Z,6.95
2018-12-25T08:46:11.440Z,6.98
2018-12-25T08:48:04.117Z,6.97
2018-12-25T08:49:03.993Z,7.11
2018-12-25T08:50:56.647Z,7.15
2018-12-25T08:51:56.539Z,7.15
2018-12-25T08:53:49.209Z,7.18
2018-12-25T08:54:49.080Z,7.26
2018-12-25T08:56:41.758Z,7.26
2018-12-25T08:57:41.634Z,7.23
2018-12-25T08:59:34.310Z,7.15
2018-12-25T09:00:34.178Z,7.13
2018-12-25T09:02:26.868Z,7.11
2018-12-25T09:03:26.748Z,7.09
2018-12-25T09:05:19.399Z,7.11
2018-12-25T09:06:19.294Z,7.11
2018-12-25T09:08:11.976Z,7.16
2018-12-25T09:09:11.838Z,7.19
2018-12-25T09:11:04.502Z,7.27
2018-12-25T09:12:04.398Z,7.29
2018-12-25T09:13:57.069Z,7.27
2018-12-25T09:14:56.938Z,7.37
2018-12-25T09:16:49.608Z,7.41
2018-12-25T09:17:49.492Z,7.36
2018-12-25T09:19:42.257Z,7.31
2018-12-25T09:20:42.129Z,7.26
2018-12-25T09:22:34.811Z,7.16
2018-12-25T09:23:34.687Z,7.18
2018-12-25T09:25:27.345Z,7.18
2018-12-25T09:26:27.228Z,7.22
2018-12-25T09:28:19.908Z,7.34
2018-12-25T09:29:19.779Z,7.30
2018-12-25T09:31:12.443Z,7.40
2018-12-25T09:32:12.331Z,7.36
2018-12-25T09:34:05.008Z,7.33
2018-12-25T09:35:04.882Z,7.30
2018-12-25T09:36:57.547Z,7.13
2018-12-25T09:37:57.449Z,7.19
2018-12-25T09:39:50.105Z,7.26
2018-12-25T09:40:49.978Z,7.27
2018-12-25T09:42:42.666Z,7.16
2018-12-25T09:43:42.533Z,7.16
2018-12-25T09:45:35.196Z,7.04
2018-12-25T09:46:35.076Z,7.15
2018-12-25T09:48:27.761Z,7.23
2018-12-25T09:49:27.636Z,7.26
2018-12-25T09:51:20.293Z,7.29
2018-12-25T09:52:20.268Z,7.31
2018-12-25T09:54:12.863Z,7.45
2018-12-25T09:55:12.732Z,7.47
2018-12-25T09:57:05.405Z,7.29
2018-12-25T09:58:05.280Z,7.23
2018-12-25T09:59:57.956Z,7.29
2018-12-25T10:00:57.846Z,7.26
2018-12-25T10:02:50.993Z,7.34
2018-12-25T10:03:50.880Z,7.30
2018-12-25T10:05:43.556Z,7.31
2018-12-25T10:06:43.431Z,7.33
2018-12-25T10:08:36.149Z,7.29
2018-12-25T10:09:35.969Z,7.33
2018-12-25T10:11:28.645Z,7.21
2018-12-25T10:12:28.523Z,7.30
2018-12-25T10:14:21.246Z,7.30
2018-12-25T10:15:21.075Z,7.45
2018-12-25T10:17:13.740Z,7.55
2018-12-25T10:18:13.633Z,7.47
2018-12-25T10:20:06.311Z,7.48
2018-12-25T10:21:06.182Z,7.55
2018-12-25T10:22:58.857Z,7.67
2018-12-25T10:23:58.729Z,7.63
2018-12-25T10:25:51.414Z,7.70
2018-12-25T10:26:51.279Z,7.91
2018-12-25T10:28:43.955Z,7.86
2018-12-25T10:29:43.830Z,7.85
2018-12-25T10:31:37.496Z,7.75
2018-12-25T10:32:37.382Z,7.68
2018-12-25T10:34:30.090Z,7.67
2018-12-25T10:35:29.964Z,7.77
2018-12-25T10:37:22.628Z,7.86
2018-12-25T10:38:22.513Z,8.09
2018-12-25T10:40:15.200Z,8.09
2018-12-25T10:41:15.067Z,7.93
2018-12-25T10:43:07.763Z,7.93
2018-12-25T10:44:07.654Z,7.83
2018-12-25T10:46:00.336Z,8.01
2018-12-25T10:47:00.204Z,7.93
2018-12-25T10:48:52.871Z,7.96
2018-12-25T10:49:52.754Z,7.91
2018-12-25T10:51:45.441Z,8.07
2018-12-25T10:52:45.315Z,8.10
2018-12-25T10:54:37.990Z,8.04
2018-12-25T10:55:37.866Z,8.09
2018-12-25T10:57:30.526Z,8.14
2018-12-25T10:58:30.434Z,8.03
2018-12-25T11:00:23.101Z,8.06
2018-12-25T11:01:22.965Z,7.96
2018-12-25T11:03:15.630Z,7.89
2018-12-25T11:04:15.523Z,7.92
2018-12-25T11:06:08.201Z,8.09
2018-12-25T11:07:08.075Z,8.11
2018-12-25T11:09:00.739Z,8.17
2018-12-25T11:10:00.629Z,8.32
2018-12-25T11:11:53.306Z,8.17
2018-12-25T11:12:53.244Z,8.04
2018-12-25T11:14:45.959Z,8.11
2018-12-25T11:15:45.840Z,8.09
2018-12-25T11:17:38.663Z,8.13
2018-12-25T11:18:38.537Z,8.24
2018-12-25T11:20:31.282Z,8.31
2018-12-25T11:21:31.262Z,8.40
2018-12-25T11:23:23.749Z,8.43
2018-12-25T11:24:23.641Z,8.54
2018-12-25T11:26:16.323Z,8.40
2018-12-25T11:27:16.200Z,8.46
2018-12-25T11:29:08.864Z,8.60
2018-12-25T11:30:08.764Z,8.64
2018-12-25T11:32:01.443Z,8.60
2018-12-25T11:33:01.311Z,8.71
2018-12-25T11:34:54.465Z,8.60
2018-12-25T11:35:54.352Z,8.52
2018-12-25T11:37:47.048Z,8.69
2018-12-25T11:38:46.922Z,8.86
2018-12-25T11:40:39.600Z,8.69
2018-12-25T11:41:39.470Z,8.62
2018-12-25T11:43:32.133Z,8.65
2018-12-25T11:44:32.019Z,8.60
2018-12-25T11:46:24.713Z,8.67
2018-12-25T11:47:24.596Z,8.65
2018-12-25T11:49:17.245Z,8.60
2018-12-25T11:50:17.130Z,8.69
2018-12-25T11:52:09.815Z,8.69
2018-12-25T11:53:09.686Z,8.65
2018-12-25T11:55:02.346Z,8.61
2018-12-25T11:56:02.237Z,8.72
2018-12-25T11:57:54.912Z,8.49
2018-12-25T11:58:54.788Z,8.46
2018-12-25T12:00:47.467Z,8.36
2018-12-25T12:01:47.337Z,8.28
2018-12-25T12:03:40.055Z,8.39
2018-12-25T12:04:39.892Z,8.34
2018-12-25T12:06:32.572Z,8.35
2018-12-25T12:07:32.439Z,8.34
2018-12-25T12:09:25.102Z,8.29
2018-12-25T12:10:24.998Z,8.29
2018-12-25T12:12:17.676Z,8.40
2018-12-25T12:13:17.549Z,8.54
2018-12-25T12:15:10.708Z,8.60
2018-12-25T12:16:10.595Z,8.57
2018-12-25T12:18:03.273Z,8.61
2018-12-25T12:19:03.144Z,8.60
2018-12-25T12:20:55.809Z,8.61
2018-12-25T12:21:55.701Z,8.69
2018-12-25T12:23:48.380Z,8.92
2018-12-25T12:24:48.254Z,9.04
2018-12-25T12:26:40.944Z,9.08
2018-12-25T12:27:40.810Z,9.21
2018-12-25T12:29:33.479Z,9.05
2018-12-25T12:30:33.364Z,9.08
2018-12-25T12:32:26.040Z,9.03
2018-12-25T12:33:25.916Z,9.08
2018-12-25T12:35:18.575Z,9.14
2018-12-25T12:36:18.491Z,9.04
2018-12-25T12:38:11.150Z,9.03
2018-12-25T12:39:11.026Z,9.11
2018-12-25T12:41:03.686Z,9.05
2018-12-25T12:42:03.568Z,9.01
2018-12-25T12:43:56.244Z,9.11
2018-12-25T12:44:56.113Z,8.98
2018-12-25T12:46:48.809Z,8.95
2018-12-25T12:47:48.678Z,8.94
2018-12-25T12:49:41.341Z,8.98
2018-12-25T12:50:41.236Z,9.05
2018-12-25T12:52:33.914Z,8.80
2018-12-25T12:53:33.790Z,8.79
2018-12-25T12:55:26.454Z,8.72
2018-12-25T12:56:26.340Z,8.62
2018-12-25T12:58:19.022Z,8.71
2018-12-25T12:59:18.891Z,8.74
2018-12-25T13:01:11.562Z,8.87
2018-12-25T13:02:11.455Z,8.83
2018-12-25T13:04:04.135Z,8.87
2018-12-25T13:05:04.007Z,8.79
2018-12-25T13:06:56.671Z,8.67
2018-12-25T13:07:56.561Z,8.52
2018-12-25T13:09:49.235Z,8.58
2018-12-25T13:10:49.112Z,8.68
2018-12-25T13:12:41.792Z,8.69
2018-12-25T13:13:41.658Z,8.71
2018-12-25T13:15:34.818Z,8.64
2018-12-25T13:16:34.754Z,8.67
2018-12-25T13:18:27.377Z,8.74
2018-12-25T13:19:27.259Z,8.69
2018-12-25T13:21:19.920Z,8.65
2018-12-25T13:22:19.800Z,8.64
2018-12-25T13:24:12.482Z,8.60
2018-12-25T13:25:12.356Z,8.69
2018-12-25T13:27:05.024Z,8.69
2018-12-25T13:28:04.905Z,8.82
2018-12-25T13:29:58.586Z,8.80
2018-12-25T13:30:58.459Z,8.71
2018-12-25T13:32:51.121Z,8.60
2018-12-25T13:33:51.004Z,8.65
2018-12-25T13:35:43.680Z,8.58
2018-12-25T13:36:43.560Z,8.52
2018-12-25T13:38:36.237Z,8.57
2018-12-25T13:39:36.103Z,8.49
2018-12-25T13:41:28.774Z,8.62
2018-12-25T13:42:28.664Z,8.62
2018-12-25T13:44:21.342Z,8.71
2018-12-25T13:45:21.211Z,8.77
2018-12-25T13:47:13.877Z,8.79
2018-12-25T13:48:13.769Z,8.76
2018-12-25T13:50:06.455Z,8.72
2018-12-25T13:51:06.323Z,8.60
2018-12-25T13:53:02.984Z,8.54
2018-12-25T13:53:58.877Z,8.50
2018-12-25T13:55:51.574Z,8.46
2018-12-25T13:56:51.443Z,8.47
2018-12-25T13:58:44.142Z,8.43
2018-12-25T13:59:43.992Z,8.40
2018-12-25T14:01:36.655Z,8.46
2018-12-25T14:02:36.543Z,8.40
2018-12-25T14:04:29.223Z,8.43
2018-12-25T14:05:29.096Z,8.42
2018-12-25T14:07:21.756Z,8.46
2018-12-25T14:08:21.647Z,8.46
2018-12-25T14:10:14.325Z,8.49
2018-12-25T14:11:14.196Z,8.46
2018-12-25T14:13:06.860Z,8.32
2018-12-25T14:14:06.760Z,8.31
2018-12-25T14:15:59.460Z,8.43
2018-12-25T14:16:59.331Z,8.43
2018-12-25T14:18:51.990Z,8.34
2018-12-25T14:19:51.882Z,8.32
2018-12-25T14:21:44.570Z,8.31
2018-12-25T14:22:44.434Z,8.31
2018-12-25T14:24:37.132Z,8.34
2018-12-25T14:25:37.005Z,8.29
2018-12-25T14:27:29.663Z,8.29
2018-12-25T14:28:29.553Z,8.26
2018-12-25T14:30:22.243Z,8.21
2018-12-25T14:31:22.149Z,8.17
2018-12-25T14:33:14.770Z,8.19
2018-12-25T14:34:16.517Z,8.22
2018-12-25T14:36:07.334Z,8.14
2018-12-25T14:37:07.205Z,8.06
2018-12-25T14:38:59.870Z,7.93
2018-12-25T14:39:59.756Z,8.03
2018-12-25T14:41:52.445Z,7.99
2018-12-25T14:42:52.317Z,8.06
2018-12-25T14:44:45.001Z,8.10
2018-12-25T14:45:44.872Z,8.03
2018-12-25T14:47:37.539Z,8.09
2018-12-25T14:48:37.423Z,7.95
2018-12-25T14:50:30.109Z,8.03
2018-12-25T14:51:29.981Z,7.99
2018-12-25T14:53:22.643Z,7.96
2018-12-25T14:54:22.526Z,7.93
2018-12-25T14:56:15.204Z,7.91
2018-12-25T14:57:15.078Z,7.93
2018-12-25T14:59:07.742Z,7.85
2018-12-25T15:00:07.629Z,7.86
2018-12-25T15:02:00.310Z,7.83
2018-12-25T15:03:00.189Z,7.93
2018-12-25T15:04:53.003Z,7.88
2018-12-25T15:05:52.739Z,7.92
2018-12-25T15:07:45.429Z,7.83
2018-12-25T15:08:45.288Z,7.82
2018-12-25T15:10:37.969Z,7.86
2018-12-25T15:11:37.841Z,7.86
2018-12-25T15:13:30.637Z,7.80
2018-12-25T15:14:30.377Z,7.78
2018-12-25T15:16:23.071Z,7.70
2018-12-25T15:17:22.939Z,7.74
2018-12-25T15:19:15.632Z,7.58
2018-12-25T15:20:15.517Z,7.63
2018-12-25T15:22:08.193Z,7.56
2018-12-25T15:23:08.063Z,7.52
2018-12-25T15:25:00.735Z,7.55
2018-12-25T15:26:00.619Z,7.59
2018-12-25T15:27:53.303Z,7.56
2018-12-25T15:28:53.173Z,7.61
2018-12-25T15:30:45.839Z,7.75
2018-12-25T15:31:45.726Z,7.70
2018-12-25T15:33:38.403Z,7.68
2018-12-25T15:34:38.275Z,7.63
2018-12-25T15:36:30.953Z,7.61
2018-12-25T15:37:30.818Z,7.54
2018-12-25T15:39:23.480Z,7.40
2018-12-25T15:40:23.373Z,7.41
2018-12-25T15:42:16.048Z,7.44
2018-12-25T15:43:15.918Z,7.54
2018-12-25T15:45:08.587Z,7.45
2018-12-25T15:46:08.481Z,7.39
2018-12-25T15:48:01.168Z,7.49
2018-12-25T15:49:01.037Z,7.51
2018-12-25T15:50:53.697Z,7.51
2018-12-25T15:51:53.588Z,7.45
2018-12-25T15:53:46.273Z,7.33
2018-12-25T15:54:46.140Z,7.30
2018-12-25T15:56:38.833Z,7.13
2018-12-25T15:57:38.702Z,7.19
2018-12-25T15:59:31.358Z,7.29
2018-12-25T16:00:32.056Z,7.37
2018-12-25T16:02:23.919Z,7.26
2018-12-25T16:03:23.795Z,7.15
2018-12-25T16:05:16.452Z,7.13
2018-12-25T16:06:16.339Z,7.11
2018-12-25T16:08:09.017Z,7.18
2018-12-25T16:09:08.907Z,7.16
2018-12-25T16:11:01.553Z,7.13
2018-12-25T16:12:01.443Z,7.11
2018-12-25T16:13:54.115Z,7.12
2018-12-25T16:14:53.990Z,7.09
2018-12-25T16:16:46.648Z,7.13
2018-12-25T16:17:46.535Z,7.16
2018-12-25T16:19:39.212Z,6.98
2018-12-25T16:20:39.083Z,6.95
2018-12-25T16:22:31.762Z,7.12
2018-12-25T16:23:31.635Z,7.04
2018-12-25T16:25:24.455Z,7.12
2018-12-25T16:26:24.184Z,7.16
2018-12-25T16:28:16.865Z,7.18
2018-12-25T16:29:16.730Z,7.19
2018-12-25T16:31:09.403Z,7.05
2018-12-25T16:32:09.289Z,7.04
2018-12-25T16:34:01.956Z,7.05
2018-12-25T16:35:01.828Z,7.08
2018-12-25T16:36:54.492Z,7.22
2018-12-25T16:37:54.377Z,7.15
2018-12-25T16:39:47.062Z,7.09
2018-12-25T16:40:46.926Z,7.13
2018-12-25T16:42:39.615Z,7.13
2018-12-25T16:43:39.543Z,7.16
2018-12-25T16:45:32.657Z,7.23
2018-12-25T16:46:32.546Z,7.26
2018-12-25T16:48:25.218Z,7.33
2018-12-25T16:49:25.096Z,7.37
2018-12-25T16:51:17.758Z,7.33
2018-12-25T16:52:17.643Z,7.30
2018-12-25T16:54:10.336Z,7.29
2018-12-25T16:55:10.190Z,7.27
2018-12-25T16:57:02.854Z,7.41
2018-12-25T16:58:02.741Z,7.29
2018-12-25T16:59:55.419Z,7.33
2018-12-25T17:00:55.291Z,7.23
2018-12-25T17:02:47.953Z,7.26
2018-12-25T17:03:49.480Z,7.29
2018-12-25T17:05:40.513Z,7.30
2018-12-25T17:06:40.388Z,7.27
2018-12-25T17:08:33.058Z,7.31
2018-12-25T17:09:32.935Z,7.27
2018-12-25T17:11:25.594Z,7.30
2018-12-25T17:12:25.477Z,7.33
2018-12-25T17:14:18.169Z,7.26
2018-12-25T17:15:18.037Z,7.26
2018-12-25T17:17:10.695Z,7.19
2018-12-25T17:18:10.574Z,7.13
2018-12-25T17:20:03.255Z,7.18
2018-12-25T17:21:03.121Z,7.15
2018-12-25T17:22:55.782Z,7.16
2018-12-25T17:24:02.190Z,7.11
2018-12-25T17:25:48.352Z,7.13
2018-12-25T17:26:48.217Z,7.18
2018-12-25T17:28:40.876Z,7.23
2018-12-25T17:29:40.758Z,7.12
2018-12-25T17:31:33.440Z,7.19
2018-12-25T17:32:33.308Z,7.18
2018-12-25T17:34:25.985Z,7.15
2018-12-25T17:35:25.944Z,7.15
2018-12-25T17:37:18.516Z,6.98
2018-12-25T17:38:18.403Z,6.93
2018-12-25T17:40:11.079Z,6.98
2018-12-25T17:41:10.950Z,7.12
2018-12-25T17:43:03.606Z,7.05
2018-12-25T17:44:03.493Z,7.12
2018-12-25T17:45:56.175Z,7.13
2018-12-25T17:46:56.046Z,7.09
2018-12-25T17:48:48.714Z,7.19
2018-12-25T17:49:48.605Z,7.21
2018-12-25T17:51:41.278Z,7.15
2018-12-25T17:52:41.146Z,7.13
2018-12-25T17:54:33.814Z,7.11
2018-12-25T17:55:33.703Z,7.12
2018-12-25T17:57:26.382Z,7.13
2018-12-25T17:58:26.247Z,7.13
2018-12-25T18:00:18.998Z,7.19
2018-12-25T18:01:18.798Z,7.16
2018-12-25T18:03:11.462Z,6.95
2018-12-25T18:04:11.346Z,6.97
2018-12-25T18:06:04.023Z,6.98
2018-12-25T18:07:03.897Z,7.00
2018-12-25T18:08:56.561Z,6.97
2018-12-25T18:09:56.443Z,6.94
2018-12-25T18:11:49.126Z,6.98
2018-12-25T18:12:49.003Z,6.93
2018-12-25T18:14:41.670Z,6.93
2018-12-25T18:15:41.553Z,7.00
2018-12-25T18:17:34.229Z,6.98
2018-12-25T18:18:34.099Z,6.93
2018-12-25T18:20:26.773Z,6.82
2018-12-25T18:21:26.654Z,6.67
2018-12-25T18:23:19.329Z,6.65
2018-12-25T18:24:19.771Z,6.73
2018-12-25T18:26:11.857Z,6.86
2018-12-25T18:27:11.745Z,6.85
2018-12-25T18:29:04.446Z,6.86
2018-12-25T18:30:04.317Z,6.82
2018-12-25T18:31:56.993Z,6.85
2018-12-25T18:32:57.355Z,6.83
2018-12-25T18:34:49.520Z,6.93
2018-12-25T18:35:49.445Z,6.97
2018-12-25T18:37:42.084Z,6.85
2018-12-25T18:38:41.948Z,6.76
2018-12-25T18:40:34.617Z,6.80
2018-12-25T18:41:34.499Z,6.85
2018-12-25T18:43:27.196Z,6.85
2018-12-25T18:44:27.056Z,6.86
2018-12-25T18:46:19.720Z,6.76
2018-12-25T18:47:19.599Z,6.80
2018-12-25T18:49:12.285Z,6.86
2018-12-25T18:50:12.152Z,6.83
2018-12-25T18:52:04.837Z,6.86
2018-12-25T18:53:04.707Z,6.82
2018-12-25T18:54:57.368Z,6.67
2018-12-25T18:55:57.246Z,6.83
2018-12-25T18:57:49.920Z,6.82
2018-12-25T18:58:49.805Z,6.80
2018-12-25T19:00:42.462Z,6.70
2018-12-25T19:01:42.345Z,6.67
2018-12-25T19:03:35.022Z,6.65
2018-12-25T19:04:34.892Z,6.58
2018-12-25T19:06:27.567Z,6.62
2018-12-25T19:07:27.511Z,6.61
2018-12-25T19:09:20.136Z,6.64
2018-12-25T19:10:20.010Z,6.65
2018-12-25T19:12:12.684Z,6.67
2018-12-25T19:13:12.644Z,6.65
2018-12-25T19:15:05.322Z,6.70
2018-12-25T19:16:05.118Z,6.64
2018-12-25T19:17:57.795Z,6.68
2018-12-25T19:18:57.661Z,6.62
2018-12-25T19:20:50.332Z,6.65
2018-12-25T19:21:50.211Z,6.70
2018-12-25T19:23:42.890Z,6.68
2018-12-25T19:24:42.795Z,6.73
2018-12-25T19:26:35.441Z,6.83
2018-12-25T19:27:35.310Z,6.70
2018-12-25T19:29:27.992Z,6.80
2018-12-25T19:30:27.865Z,6.80
2018-12-25T19:32:20.534Z,6.78
2018-12-25T19:33:20.416Z,6.82
2018-12-25T19:35:13.112Z,6.55
2018-12-25T19:36:12.963Z,6.52
2018-12-25T19:38:05.660Z,6.51
2018-12-25T19:39:05.529Z,6.54
2018-12-25T19:40:58.196Z,6.65
2018-12-25T19:41:58.078Z,6.64
2018-12-25T19:43:50.760Z,6.67
2018-12-25T19:44:50.646Z,6.58
2018-12-25T19:46:43.318Z,6.57
2018-12-25T19:47:43.199Z,6.57
2018-12-25T19:49:35.884Z,6.60
2018-12-25T19:50:35.777Z,6.61
2018-12-25T19:52:28.431Z,6.58
2018-12-25T19:53:28.335Z,6.58
2018-12-25T19:55:21.001Z,6.62
2018-12-25T19:56:20.867Z,6.68
2018-12-25T19:58:13.537Z,6.51
2018-12-25T19:59:13.424Z,6.54
2018-12-25T20:01:06.114Z,6.57
2018-12-25T20:02:05.978Z,6.51
2018-12-25T20:03:58.670Z,6.49
2018-12-25T20:04:58.538Z,6.43
2018-12-25T20:06:51.200Z,6.40
2018-12-25T20:07:51.080Z,6.40
2018-12-25T20:09:43.758Z,6.40
2018-12-25T20:10:43.635Z,6.44
2018-12-25T20:12:36.303Z,6.31
2018-12-25T20:13:36.171Z,6.40
2018-12-25T20:15:28.850Z,6.42
2018-12-25T20:16:28.720Z,6.43
2018-12-25T20:18:21.378Z,6.47
2018-12-25T20:19:21.268Z,6.42
2018-12-25T20:21:13.942Z,6.43
2018-12-25T20:22:14.224Z,6.43
2018-12-25T20:24:06.476Z,6.33
2018-12-25T20:25:06.367Z,6.36
2018-12-25T20:26:59.047Z,6.43
2018-12-25T20:27:58.949Z,6.49
2018-12-25T20:29:51.574Z,6.34
2018-12-25T20:30:51.464Z,6.28
2018-12-25T20:32:44.138Z,6.34
2018-12-25T20:33:44.007Z,6.37
2018-12-25T20:35:36.662Z,6.42
2018-12-25T20:36:36.548Z,6.43
2018-12-25T20:38:29.234Z,6.44
2018-12-25T20:39:29.100Z,6.33
2018-12-25T20:41:21.760Z,6.28
2018-12-25T20:42:21.636Z,6.37
2018-12-25T20:44:14.324Z,6.44
2018-12-25T20:45:14.227Z,6.40
2018-12-25T20:47:06.847Z,6.43
2018-12-25T20:48:06.731Z,6.40
2018-12-25T20:49:59.417Z,6.42
2018-12-25T20:50:59.279Z,6.33
2018-12-25T20:52:51.940Z,6.28
2018-12-25T20:53:51.829Z,6.21
2018-12-25T20:55:44.506Z,6.25
2018-12-25T20:56:44.376Z,6.29
2018-12-25T20:58:37.075Z,6.29
2018-12-25T20:59:36.928Z,6.28
2018-12-25T21:01:29.597Z,6.14
2018-12-25T21:02:29.647Z,6.07
2018-12-25T21:04:22.156Z,6.21
2018-12-25T21:05:22.042Z,6.10
2018-12-25T21:07:14.691Z,6.15
2018-12-25T21:08:14.565Z,6.06
2018-12-25T21:10:07.242Z,6.03
2018-12-25T21:11:07.116Z,6.03
2018-12-25T21:12:59.773Z,5.95
2018-12-25T21:13:59.660Z,5.89
2018-12-25T21:15:52.363Z,5.95
2018-12-25T21:16:52.223Z,6.00
2018-12-25T21:18:45.317Z,5.98
2018-12-25T21:19:44.870Z,6.05
2018-12-25T21:21:37.545Z,6.05
2018-12-25T21:22:37.388Z,6.14
2018-12-25T21:24:30.076Z,6.17
2018-12-25T21:25:29.961Z,6.09
2018-12-25T21:27:22.793Z,6.17
2018-12-25T21:28:22.521Z,6.09
2018-12-25T21:30:15.203Z,6.06
2018-12-25T21:31:15.086Z,5.99
2018-12-25T21:33:07.844Z,5.87
2018-12-25T21:34:07.711Z,5.89
2018-12-25T21:36:00.296Z,5.85
2018-12-25T21:37:00.216Z,5.81
2018-12-25T21:38:52.862Z,5.77
2018-12-25T21:39:52.724Z,5.72
2018-12-25T21:41:45.418Z,5.63
2018-12-25T21:42:45.335Z,5.64
2018-12-25T21:44:37.982Z,5.78
2018-12-25T21:45:37.852Z,5.59
2018-12-25T21:47:30.505Z,5.70
2018-12-25T21:48:30.397Z,5.73
2018-12-25T21:50:23.078Z,5.70
2018-12-25T21:51:22.941Z,5.64
2018-12-25T21:53:15.617Z,5.66
2018-12-25T21:54:15.501Z,5.66
2018-12-25T21:56:08.198Z,5.66
2018-12-25T21:57:08.044Z,5.63
2018-12-25T21:59:00.711Z,5.73
2018-12-25T22:00:00.601Z,5.77
2018-12-25T22:01:53.276Z,5.85
2018-12-25T22:02:53.147Z,5.85
2018-12-25T22:04:45.805Z,5.84
2018-12-25T22:05:45.694Z,5.85
2018-12-25T22:07:38.364Z,5.72
2018-12-25T22:08:38.236Z,5.73
2018-12-25T22:10:30.909Z,5.63
2018-12-25T22:11:30.783Z,5.66
2018-12-25T22:13:23.444Z,5.60
2018-12-25T22:14:23.434Z,5.45
2018-12-25T22:16:16.086Z,5.31
2018-12-25T22:17:15.978Z,5.23
2018-12-25T22:19:08.789Z,5.30
2018-12-25T22:20:08.436Z,5.33
2018-12-25T22:22:01.621Z,5.34
2018-12-25T22:23:01.493Z,5.30
2018-12-25T22:24:54.143Z,5.37
2018-12-25T22:25:54.112Z,5.42
2018-12-25T22:27:46.721Z,5.31
2018-12-25T22:28:46.581Z,5.30
2018-12-25T22:30:39.241Z,5.13
2018-12-25T22:31:39.190Z,5.03
2018-12-25T22:33:31.805Z,5.05
2018-12-25T22:34:31.674Z,5.15
2018-12-25T22:36:24.423Z,5.20
2018-12-25T22:37:24.297Z,5.21
2018-12-25T22:39:17.948Z,5.30
2018-12-25T22:40:16.967Z,5.28
2018-12-25T22:42:10.006Z,5.37
2018-12-25T22:43:09.511Z,5.31
2018-12-25T22:45:02.174Z,5.26
2018-12-25T22:46:02.071Z,5.23
2018-12-25T22:47:54.765Z,5.12
2018-12-25T22:48:54.626Z,5.06
2018-12-25T22:50:47.311Z,4.98
2018-12-25T22:51:47.184Z,4.95
2018-12-25T22:53:39.878Z,4.98
2018-12-25T22:54:39.711Z,4.90
2018-12-25T22:56:32.450Z,4.98
2018-12-25T22:57:32.254Z,4.95
2018-12-25T22:59:24.914Z,5.00
